Terminal Aerodrome Forecast
Issued by NWS Sterling, VA

Home | Current Version | Previous Version | Text Only | Print | Product List | Glossary On
Versions: 1 2 3 4 5 6 7 8 9 10 11 12 13 14 15 16 17 18 19 20 21 22 23 24 25 26 27 28 29 30 31 32 33 34 35 36
000
FTUS41 KLWX 031139
TAFIAD
TAF
KIAD 031139Z 0312/0418 03006KT 5SM -DZ BKN008 OVC015
     FM031600 03006KT P6SM OVC015
     FM032200 07005KT 4SM -RA OVC015
     FM040300 05004KT 4SM -RA BKN004 OVC008=

USA.gov is the U.S. government's official web portal to all federal, state and local government web resources and services.